Huvudsida
METAR-TAF:

METAR-TAF

Flygplatser :

Taif, Saudiarabien

latitud: 21-29N, longitud: 040-33E, höjd: 1478 m

Aktuellt väderrapport

Denna rapport gjordes för 40 minuter sedan, klockan 19:00 UTC
Vind 13 kt från sydväst
Temperatur 21°C
Fuktighet 46%
Tryck 1020 hPa
Sikt: 7000 m

METAR: OETF 281900Z 22013KT 7000 NSC 21/09 Q1020 NOSIG

Tid: 22:40 (19:40 UTC)

Väderprognos

Denna rapport gjordes för 2 timmar och 40 minuter sedan, klockan 17:00 UTC
Prognos gäller från 28 kl. 18 UTC till 29 kl. 12 UTC
Vind 10 kt från sydväst
Sikt: 6000 m
Få moln på en höjd av 3000 ft
Temporärt
från 28 kl. 18 UTC till 29 kl. 06 UTC
Sikt: 4000 m
utbrett stoft, högt damm drev

TAF: OETF 281700Z 2818/2912 22010KT 6000 FEW030 TEMPO 2818/2906 4000 DU BLDU

Aktuella väderrapporter och prognoser från 4000 flygplatser (METAR- och TAF-rapporter).

De tillgängliga stationerna syns som gula och röda prickar på kartan.

För musen över prickarna för att se namnen på stationerna.

Klicka sedan för att få väderrapporter och prognoser.

För att ändra kartan: Klicka på de gröna knapparna med ett svart kors på för att zooma in; den gröna knappen med ett streck på för att zooma ut; eller på de gröna pilarna för angränsande kartor.


METAR-TAF: